Time;durP1;ratioP1;P1;durP2;ratioP2;P2;SDS_P1;SDS_P2;PMS_P1;PMS_P2;Temp;Humidity;BMP_temperature;BMP_pressure;BME280_temperature;BME280_humidity;BME280_pressure;Samples;Min_cycle;Max_cycle;Signal;HPM_P1;HPM_P2
2023/01/23 00:01:35;;;;;;;24.38;12.73;;;;;;;0.68;100.00;103372.03;5091874;28;20048;-61
2023/01/23 00:04:03;;;;;;;27.75;13.50;;;;;;;0.71;100.00;103374.69;5091964;28;20527;-61
2023/01/23 00:06:33;;;;;;;28.75;14.25;;;;;;;0.71;100.00;103371.22;5091801;28;20044;-61
2023/01/23 00:09:01;;;;;;;27.50;13.40;;;;;;;0.79;100.00;103373.09;5088879;28;20535;-61
2023/01/23 00:11:30;;;;;;;28.70;14.10;;;;;;;0.75;100.00;103373.00;5091453;28;20090;-61
2023/01/23 00:13:59;;;;;;;25.58;13.60;;;;;;;0.73;100.00;103367.81;5093729;28;20040;-61
2023/01/23 00:16:30;;;;;;;31.27;14.05;;;;;;;0.72;100.00;103352.25;5091357;28;20044;-61
2023/01/23 00:18:58;;;;;;;28.27;14.60;;;;;;;0.72;100.00;103368.63;5095386;28;20509;-61
2023/01/23 00:21:28;;;;;;;30.95;14.25;;;;;;;0.71;100.00;103361.75;5094386;28;20044;-61
2023/01/23 00:24:00;;;;;;;33.03;13.88;;;;;;;0.73;100.00;103361.75;5092490;28;20044;-62
2023/01/23 00:26:31;;;;;;;26.37;14.30;;;;;;;0.71;100.00;103366.91;5092738;28;20105;-61
2023/01/23 00:28:59;;;;;;;28.92;14.05;;;;;;;0.72;100.00;103360.00;5094004;28;20858;-61
2023/01/23 00:31:30;;;;;;;27.30;14.30;;;;;;;0.75;100.00;103373.00;5095031;28;20044;-61
2023/01/23 00:34:00;;;;;;;30.85;14.68;;;;;;;0.74;100.00;103377.31;5095964;28;20044;-61
2023/01/23 00:36:30;;;;;;;29.60;13.65;;;;;;;0.68;100.00;103384.97;5095283;28;20066;-62
2023/01/23 00:39:01;;;;;;;29.45;14.68;;;;;;;0.70;100.00;103385.91;5093322;28;20043;-61
2023/01/23 00:41:29;;;;;;;27.90;13.57;;;;;;;0.66;100.00;103397.91;5091540;28;20055;-61
2023/01/23 00:44:00;;;;;;;26.08;14.85;;;;;;;0.65;100.00;103398.75;5094585;28;20044;-61
2023/01/23 00:46:28;;;;;;;28.80;15.15;;;;;;;0.67;100.00;103381.53;5090488;28;20106;-61
2023/01/23 00:48:56;;;;;;;29.20;15.15;;;;;;;0.70;100.00;103385.91;5091586;28;20064;-61
2023/01/23 00:51:24;;;;;;;32.45;14.55;;;;;;;0.69;100.00;103386.72;5095115;28;20056;-61
2023/01/23 00:53:52;;;;;;;31.20;14.70;;;;;;;0.78;100.00;103386.88;5094984;28;20090;-61
2023/01/23 00:56:22;;;;;;;31.08;15.10;;;;;;;0.81;100.00;103383.47;5093676;28;20048;-61
2023/01/23 00:58:50;;;;;;;26.67;15.45;;;;;;;0.78;100.00;103392.06;5089534;28;20048;-61
2023/01/23 01:01:18;;;;;;;30.70;14.98;;;;;;;0.68;100.00;103390.16;5091945;28;20044;-61
2023/01/23 01:03:46;;;;;;;28.63;15.85;;;;;;;0.67;100.00;103380.66;5092864;28;20498;-61
2023/01/23 01:06:15;;;;;;;29.98;15.07;;;;;;;0.71;100.00;103377.28;5090330;28;20055;-61
2023/01/23 01:08:43;;;;;;;32.40;15.50;;;;;;;0.68;100.00;103384.97;5094122;28;20067;-61
2023/01/23 01:11:11;;;;;;;29.00;15.85;;;;;;;0.69;100.00;103384.13;5093801;28;20072;-61
2023/01/23 01:13:41;;;;;;;29.63;14.73;;;;;;;0.68;100.00;103384.97;5091180;28;20064;-61
2023/01/23 01:16:10;;;;;;;31.30;15.55;;;;;;;0.66;100.00;103373.72;5091549;28;20077;-62
2023/01/23 01:18:38;;;;;;;26.58;14.25;;;;;;;0.70;100.00;103393.66;5094293;28;20572;-61
2023/01/23 01:21:07;;;;;;;28.90;16.02;;;;;;;0.75;100.00;103392.03;5093945;28;20149;-61
2023/01/23 01:23:36;;;;;;;33.50;16.08;;;;;;;0.74;100.00;103398.06;5094219;28;20082;-61
2023/01/23 01:26:05;;;;;;;30.80;15.48;;;;;;;0.72;100.00;103399.72;5094215;28;20052;-61
2023/01/23 01:28:34;;;;;;;27.88;14.63;;;;;;;0.72;100.00;103398.88;5094173;28;20089;-61
2023/01/23 01:31:07;;;;;;;28.50;15.07;;;;;;;0.78;100.00;103402.44;5094165;28;20071;-61
2023/01/23 01:33:36;;;;;;;28.40;15.65;;;;;;;0.74;100.00;103392.88;5094184;28;20059;-61
2023/01/23 01:36:09;;;;;;;24.95;14.15;;;;;;;0.77;100.00;103403.28;5094129;28;20426;-61
2023/01/23 01:38:37;;;;;;;31.13;16.02;;;;;;;0.77;100.00;103405.88;5094027;28;20097;-61
2023/01/23 01:41:06;;;;;;;27.95;15.02;;;;;;;0.76;100.00;103406.69;5091624;28;20059;-61
2023/01/23 01:43:35;;;;;;;34.15;15.45;;;;;;;0.79;100.00;103409.38;5090930;28;20044;-62
2023/01/23 01:46:11;;;;;;;33.50;15.60;;;;;;;0.78;100.00;103405.03;5092763;28;20520;-61
2023/01/23 01:48:44;;;;;;;27.20;14.38;;;;;;;0.83;100.00;103405.97;5093828;28;20123;-61
2023/01/23 01:51:19;;;;;;;33.22;16.52;;;;;;;0.87;100.00;103400.84;5092623;28;20040;-61
2023/01/23 01:53:52;;;;;;;25.02;15.07;;;;;;;0.88;100.00;103403.47;5090419;28;20105;-61
2023/01/23 01:56:20;;;;;;;28.63;14.93;;;;;;;0.90;100.00;103403.47;5092541;28;20386;-61
2023/01/23 01:58:53;;;;;;;26.55;14.52;;;;;;;0.90;100.00;103403.47;5093896;28;20130;-61
2023/01/23 02:01:22;;;;;;;33.03;15.80;;;;;;;0.91;100.00;103397.44;5093210;28;20068;-61
2023/01/23 02:03:51;;;;;;;29.38;14.98;;;;;;;0.86;100.00;103401.69;5090001;28;20044;-61
2023/01/23 02:06:20;;;;;;;32.63;16.48;;;;;;;0.82;100.00;103401.63;5088276;28;20051;-61
2023/01/23 02:08:55;;;;;;;30.33;15.77;;;;;;;0.88;100.00;103400.88;5091946;28;20131;-61
2023/01/23 02:11:24;;;;;;;35.88;15.75;;;;;;;0.89;100.00;103394.84;5093402;28;20048;-61
2023/01/23 02:13:54;;;;;;;25.95;14.32;;;;;;;0.86;100.00;103399.09;5092886;28;20131;-61
2023/01/23 02:16:28;;;;;;;30.38;14.57;;;;;;;0.92;100.00;103397.47;5092955;28;20044;-61
2023/01/23 02:19:00;;;;;;;33.03;14.95;;;;;;;0.91;100.00;103408.69;5092910;28;20043;-61
2023/01/23 02:21:28;;;;;;;27.98;15.18;;;;;;;0.92;100.00;103402.66;5093261;28;20043;-61
2023/01/23 02:24:10;;;;;;;33.35;15.73;;;;;;;0.94;100.00;103407.88;5093262;28;20051;-61
2023/01/23 02:26:41;;;;;;;25.33;14.03;;;;;;;0.92;100.00;103405.25;5093169;28;20080;-61
2023/01/23 02:29:12;;;;;;;30.92;14.52;;;;;;;0.95;100.00;103407.03;5093183;28;20456;-61
2023/01/23 02:31:43;;;;;;;27.92;15.05;;;;;;;0.94;100.00;103402.69;5090547;28;20067;-61
2023/01/23 02:34:13;;;;;;;29.20;15.38;;;;;;;0.92;100.00;103404.38;5086901;28;20079;-61
2023/01/23 02:36:45;;;;;;;27.77;15.38;;;;;;;0.94;100.00;103406.16;5092842;28;20058;-61
2023/01/23 02:39:15;;;;;;;27.52;15.20;;;;;;;0.93;100.00;103408.72;5093139;28;20182;-61
2023/01/23 02:41:46;;;;;;;28.02;14.98;;;;;;;0.94;100.00;103413.03;5092857;28;20050;-62
2023/01/23 02:44:18;;;;;;;28.30;14.80;;;;;;;0.92;100.00;103414.75;5090562;28;20063;-61
2023/01/23 02:46:47;;;;;;;33.78;14.50;;;;;;;0.92;100.00;103413.03;5088480;28;20440;-61
2023/01/23 02:49:15;;;;;;;28.70;14.98;;;;;;;0.96;100.00;103408.78;5092539;28;20072;-61
2023/01/23 02:51:43;;;;;;;29.30;15.13;;;;;;;0.97;100.00;103405.34;5092700;28;20529;-61
2023/01/23 02:54:12;;;;;;;30.58;14.93;;;;;;;0.97;100.00;103405.34;5092871;28;20132;-61
2023/01/23 02:56:41;;;;;;;27.70;15.15;;;;;;;0.97;100.00;103408.78;5092725;28;20067;-62
2023/01/23 03:01:52;;;;;;;27.80;15.60;;;;;;;1.02;100.00;103419.22;5048874;28;20090;-61
2023/01/23 03:04:21;;;;;;;32.80;15.65;;;;;;;1.03;100.00;103420.97;5092630;28;20048;-61
2023/01/23 03:06:49;;;;;;;25.42;14.23;;;;;;;0.98;100.00;103422.63;5090687;28;20190;-61
2023/01/23 03:09:18;;;;;;;29.55;14.98;;;;;;;0.99;100.00;103414.84;5088985;28;20072;-61
2023/01/23 03:11:47;;;;;;;29.92;14.43;;;;;;;1.08;100.00;103414.16;5091604;28;20097;-62
2023/01/23 03:14:18;;;;;;;28.02;14.95;;;;;;;1.08;100.00;103426.22;5091218;28;20055;-61
2023/01/23 03:16:50;;;;;;;27.40;14.88;;;;;;;1.03;100.00;103420.97;5092590;28;20966;-62
2023/01/23 03:19:19;;;;;;;31.13;16.13;;;;;;;1.03;100.00;103420.13;5092253;28;20521;-61
2023/01/23 03:21:47;;;;;;;27.70;15.13;;;;;;;1.06;100.00;103418.41;5091638;28;20099;-61
2023/01/23 03:24:16;;;;;;;28.75;15.55;;;;;;;1.07;100.00;103422.75;5092229;28;20040;-62
2023/01/23 03:26:45;;;;;;;27.50;14.75;;;;;;;1.05;100.00;103423.59;5092101;28;20142;-61
2023/01/23 03:32:03;;;;;;;27.95;15.10;;;;;;;1.03;100.00;103415.78;5091945;28;20783;-61
2023/01/23 03:34:34;;;;;;;32.60;14.68;;;;;;;1.09;100.00;103425.38;5091937;28;20051;-63
2023/01/23 03:37:03;;;;;;;28.77;15.43;;;;;;;1.07;100.00;103421.91;5089419;28;20052;-61
2023/01/23 03:42:16;;;;;;;28.63;15.30;;;;;;;1.08;100.00;103414.16;5092602;28;20146;-62
2023/01/23 03:44:48;;;;;;;28.17;15.10;;;;;;;1.04;100.00;103417.53;5091826;28;20043;-61
2023/01/23 03:47:16;;;;;;;27.50;14.55;;;;;;;1.08;100.00;103434.00;5096079;28;20160;-62
2023/01/23 03:49:44;;;;;;;27.10;14.38;;;;;;;1.06;100.00;103435.72;5095910;28;20074;-61
2023/01/23 03:52:12;;;;;;;26.88;14.80;;;;;;;1.11;100.00;103436.66;5092383;28;20052;-61
2023/01/23 03:54:41;;;;;;;28.40;15.52;;;;;;;1.02;100.00;103439.97;5092993;28;20052;-61
2023/01/23 03:57:09;;;;;;;26.10;15.07;;;;;;;1.03;100.00;103431.34;5095951;28;20090;-61
2023/01/23 03:59:37;;;;;;;25.25;14.55;;;;;;;1.06;100.00;103431.38;5095772;28;20474;-61
2023/01/23 04:02:07;;;;;;;28.35;14.98;;;;;;;1.08;100.00;103427.13;5091179;28;20063;-61
2023/01/23 04:04:35;;;;;;;26.63;14.70;;;;;;;1.12;100.00;103423.72;5091119;28;20056;-61
2023/01/23 04:07:06;;;;;;;26.50;15.15;;;;;;;1.10;100.00;103424.53;5094460;28;20075;-61
2023/01/23 04:09:34;;;;;;;26.25;15.25;;;;;;;1.11;100.00;103429.75;5095908;28;20044;-61
2023/01/23 04:12:02;;;;;;;28.33;14.65;;;;;;;1.12;100.00;103428.91;5095702;28;20530;-61
2023/01/23 04:14:36;;;;;;;22.40;14.43;;;;;;;1.08;100.00;103437.47;5095768;28;20051;-61
2023/01/23 04:17:04;;;;;;;26.13;14.50;;;;;;;1.08;100.00;103434.88;5096055;28;20076;-61
2023/01/23 04:19:35;;;;;;;28.15;14.35;;;;;;;1.04;100.00;103438.28;5095753;28;20036;-61
2023/01/23 04:22:03;;;;;;;26.13;15.05;;;;;;;1.06;100.00;103440.88;5095751;28;20428;-61
2023/01/23 04:24:32;;;;;;;27.65;14.80;;;;;;;1.11;100.00;103434.94;5095590;28;20040;-61
2023/01/23 04:27:00;;;;;;;28.73;15.13;;;;;;;1.08;100.00;103442.66;5095438;28;20048;-61
2023/01/23 04:29:28;;;;;;;25.88;14.55;;;;;;;1.20;100.00;103438.50;5091417;28;20055;-61
2023/01/23 04:31:56;;;;;;;25.60;15.05;;;;;;;1.11;100.00;103440.13;5090860;28;20147;-61
2023/01/23 04:34:24;;;;;;;27.25;14.93;;;;;;;1.08;100.00;103434.88;5095303;28;20503;-61
2023/01/23 04:36:54;;;;;;;29.80;15.98;;;;;;;1.08;100.00;103444.38;5092870;28;20052;-61
2023/01/23 04:39:22;;;;;;;28.67;15.60;;;;;;;1.06;100.00;103438.31;5090312;28;20048;-61
2023/01/23 04:41:50;;;;;;;26.67;14.77;;;;;;;1.07;100.00;103434.88;5094900;28;20414;-61
2023/01/23 04:44:20;;;;;;;29.85;14.80;;;;;;;1.04;100.00;103439.97;5094055;28;20048;-61
2023/01/23 04:46:49;;;;;;;25.73;14.07;;;;;;;1.03;100.00;103444.31;5091093;28;20317;-62
2023/01/23 04:49:18;;;;;;;28.42;14.90;;;;;;;1.07;100.00;103443.50;5092747;28;20410;-62
2023/01/23 04:51:47;;;;;;;27.98;15.80;;;;;;;1.13;100.00;103448.81;5094646;28;20491;-60
2023/01/23 04:54:18;;;;;;;26.27;14.52;;;;;;;1.17;100.00;103449.69;5094277;28;20048;-60
2023/01/23 04:56:47;;;;;;;29.50;15.85;;;;;;;1.15;100.00;103443.63;5090677;28;20040;-60
2023/01/23 04:59:15;;;;;;;25.30;14.02;;;;;;;1.14;100.00;103452.25;5092163;28;20124;-61
2023/01/23 05:01:44;;;;;;;26.98;15.95;;;;;;;1.11;100.00;103455.66;5094775;28;20082;-60
2023/01/23 05:04:12;;;;;;;27.27;15.02;;;;;;;1.13;100.00;103459.16;5094775;28;20063;-61
2023/01/23 05:06:41;;;;;;;26.05;14.98;;;;;;;1.11;100.00;103450.47;5094738;28;20384;-61
2023/01/23 05:09:09;;;;;;;25.98;15.55;;;;;;;1.12;100.00;103460.00;5094990;28;20123;-61
2023/01/23 05:11:38;;;;;;;26.17;15.30;;;;;;;1.11;100.00;103454.81;5094673;28;20044;-61
2023/01/23 05:14:06;;;;;;;26.98;14.68;;;;;;;1.13;100.00;103458.28;5093466;28;20408;-61
2023/01/23 05:16:34;;;;;;;23.25;14.05;;;;;;;1.14;100.00;103468.66;5094847;28;20052;-61
2023/01/23 05:19:03;;;;;;;25.48;14.05;;;;;;;1.10;100.00;103466.88;5089614;28;20058;-61
2023/01/23 05:21:31;;;;;;;29.75;15.07;;;;;;;1.10;100.00;103463.41;5091513;28;20042;-61
2023/01/23 05:23:59;;;;;;;27.65;15.57;;;;;;;1.12;100.00;103466.94;5094632;28;20106;-61
2023/01/23 05:26:28;;;;;;;31.10;14.93;;;;;;;1.11;100.00;103466.03;5094378;28;20055;-61
2023/01/23 05:28:57;;;;;;;25.00;14.57;;;;;;;1.13;100.00;103468.66;5092254;28;20044;-61
2023/01/23 05:31:25;;;;;;;28.20;15.20;;;;;;;1.15;100.00;103462.66;5089912;28;20993;-61
2023/01/23 05:33:53;;;;;;;25.35;14.80;;;;;;;1.17;100.00;103468.75;5093718;28;20048;-61
2023/01/23 05:36:21;;;;;;;27.65;14.85;;;;;;;1.19;100.00;103476.53;5094293;28;20417;-61
2023/01/23 05:38:50;;;;;;;30.38;13.80;;;;;;;1.16;100.00;103477.34;5094064;28;20048;-61
2023/01/23 05:41:18;;;;;;;29.42;14.52;;;;;;;1.11;100.00;103476.41;5094025;28;20394;-61
2023/01/23 05:43:48;;;;;;;25.98;14.98;;;;;;;1.11;100.00;103481.59;5093974;28;20068;-61
2023/01/23 05:46:18;;;;;;;27.42;16.27;;;;;;;1.11;100.00;103473.81;5093977;28;20040;-61
2023/01/23 05:48:49;;;;;;;25.05;14.15;;;;;;;1.09;100.00;103475.53;5094187;28;20042;-61
2023/01/23 05:51:17;;;;;;;29.15;14.65;;;;;;;1.15;100.00;103482.53;5094074;28;20040;-62
2023/01/23 05:53:46;;;;;;;28.27;15.82;;;;;;;1.13;100.00;103474.72;5093215;28;20103;-61
2023/01/23 05:56:14;;;;;;;26.85;15.65;;;;;;;1.13;100.00;103476.44;5090118;28;20101;-60
2023/01/23 05:58:42;;;;;;;28.35;17.10;;;;;;;1.17;100.00;103479.13;5090265;28;20368;-61
2023/01/23 06:01:10;;;;;;;28.35;16.25;;;;;;;1.12;100.00;103479.88;5093355;28;20070;-61
2023/01/23 06:03:40;;;;;;;27.90;15.68;;;;;;;1.08;100.00;103484.13;5093548;28;20143;-63
2023/01/23 06:06:08;;;;;;;28.38;15.95;;;;;;;1.14;100.00;103483.38;5093183;28;20075;-62
2023/01/23 06:08:36;;;;;;;28.88;16.58;;;;;;;1.20;100.00;103491.25;5092480;28;20068;-61
2023/01/23 06:11:05;;;;;;;31.10;14.77;;;;;;;1.16;100.00;103492.91;5093435;28;20048;-61
2023/01/23 06:13:33;;;;;;;28.10;15.50;;;;;;;1.20;100.00;103487.78;5093703;28;20075;-63
2023/01/23 06:16:02;;;;;;;27.13;15.63;;;;;;;1.12;100.00;103495.44;5093114;28;20097;-62
2023/01/23 06:18:30;;;;;;;28.23;15.75;;;;;;;1.13;100.00;103497.16;5089661;28;20047;-62
2023/01/23 06:21:00;;;;;;;30.15;17.02;;;;;;;1.12;100.00;103498.03;5091114;28;20502;-62
2023/01/23 06:23:29;;;;;;;29.63;15.48;;;;;;;1.14;100.00;103499.78;5093457;28;20090;-62
2023/01/23 06:25:59;;;;;;;30.45;15.63;;;;;;;1.16;100.00;103507.59;5092918;28;20056;-62
2023/01/23 06:28:28;;;;;;;24.13;14.57;;;;;;;1.21;100.00;103502.50;5093292;28;20515;-62
2023/01/23 06:31:02;;;;;;;24.00;15.15;;;;;;;1.22;100.00;103499.06;5093097;28;20503;-62
2023/01/23 06:33:31;;;;;;;29.90;15.75;;;;;;;1.20;100.00;103500.72;5093264;28;20109;-62
2023/01/23 06:36:02;;;;;;;28.33;15.23;;;;;;;1.17;100.00;103506.75;5093232;28;20499;-62
2023/01/23 06:38:30;;;;;;;28.58;15.20;;;;;;;1.11;100.00;103498.88;5092579;28;20058;-62
2023/01/23 06:40:58;;;;;;;28.00;15.45;;;;;;;1.14;100.00;103502.38;5089689;28;20499;-62
2023/01/23 06:43:27;;;;;;;29.52;16.48;;;;;;;1.13;100.00;103500.66;5090361;28;20048;-62
2023/01/23 06:45:55;;;;;;;27.83;16.52;;;;;;;1.18;100.00;103498.13;5090796;28;20040;-62
2023/01/23 06:48:23;;;;;;;27.33;15.15;;;;;;;1.18;100.00;103498.13;5087983;28;20437;-62
2023/01/23 06:50:51;;;;;;;29.58;16.45;;;;;;;1.21;100.00;103505.06;5091936;28;20135;-62
2023/01/23 06:53:20;;;;;;;30.33;16.42;;;;;;;1.18;100.00;103506.75;5092809;28;20097;-62
2023/01/23 06:55:49;;;;;;;26.02;15.95;;;;;;;1.18;100.00;103506.75;5091329;28;20039;-62
2023/01/23 06:58:17;;;;;;;25.95;16.55;;;;;;;1.24;100.00;103512.91;5088945;28;20068;-63
2023/01/23 07:00:45;;;;;;;29.45;17.33;;;;;;;1.20;100.00;103514.59;5091051;28;20055;-61
2023/01/23 07:03:14;;;;;;;28.77;16.70;;;;;;;1.16;100.00;103521.44;5092572;28;20123;-61
2023/01/23 07:05:43;;;;;;;28.15;15.98;;;;;;;1.20;100.00;103521.47;5092150;28;20130;-61
2023/01/23 07:08:11;;;;;;;32.80;16.98;;;;;;;1.23;100.00;103518.94;5088897;28;20070;-61
2023/01/23 07:10:41;;;;;;;33.08;17.80;;;;;;;1.19;100.00;103518.03;5090712;28;20059;-61
2023/01/23 07:13:11;;;;;;;29.40;16.33;;;;;;;1.20;100.00;103530.16;5091814;28;20040;-61
2023/01/23 07:15:39;;;;;;;28.63;16.40;;;;;;;1.24;100.00;103518.97;5092096;28;20066;-61
2023/01/23 07:18:10;;;;;;;30.23;16.55;;;;;;;1.24;100.00;103528.47;5091586;28;20123;-61
2023/01/23 07:20:38;;;;;;;28.52;17.13;;;;;;;1.24;100.00;103529.34;5088220;28;20040;-61
2023/01/23 07:23:06;;;;;;;29.05;16.10;;;;;;;1.22;100.00;103527.56;5089655;28;20120;-61
2023/01/23 07:25:34;;;;;;;28.33;16.02;;;;;;;1.22;100.00;103522.38;5089053;28;20063;-61
2023/01/23 07:28:04;;;;;;;33.00;16.73;;;;;;;1.17;100.00;103525.78;5089454;28;20083;-61
2023/01/23 07:30:32;;;;;;;27.88;16.88;;;;;;;1.22;100.00;103535.34;5092333;28;20040;-61
2023/01/23 07:33:01;;;;;;;29.50;15.95;;;;;;;1.23;100.00;103531.88;5092407;28;20052;-63
2023/01/23 07:35:29;;;;;;;30.70;15.55;;;;;;;1.25;100.00;103543.19;5092406;28;20135;-63
2023/01/23 07:37:58;;;;;;;25.42;15.98;;;;;;;1.25;100.00;103553.53;5092418;28;20048;-63
2023/01/23 07:40:26;;;;;;;31.08;16.60;;;;;;;1.25;100.00;103549.22;5092345;28;20044;-62
2023/01/23 07:42:56;;;;;;;25.48;15.15;;;;;;;1.25;100.00;103550.94;5091967;28;20139;-62
2023/01/23 07:45:26;;;;;;;28.83;16.08;;;;;;;1.27;100.00;103554.44;5092274;28;20048;-62
2023/01/23 07:47:54;;;;;;;27.30;15.35;;;;;;;1.32;100.00;103563.16;5092060;28;20505;-63
2023/01/23 07:50:22;;;;;;;26.35;15.57;;;;;;;1.31;100.00;103564.91;5092195;28;20522;-62
2023/01/23 07:52:50;;;;;;;26.90;16.35;;;;;;;1.31;100.00;103561.41;5090129;28;20044;-63
2023/01/23 07:55:18;;;;;;;27.02;16.30;;;;;;;1.29;100.00;103563.13;5086594;28;20086;-62
2023/01/23 07:57:46;;;;;;;30.48;17.00;;;;;;;1.31;100.00;103566.59;5092004;28;20479;-63
2023/01/23 08:00:15;;;;;;;30.80;15.63;;;;;;;1.33;100.00;103562.34;5090695;28;20048;-62
2023/01/23 08:02:44;;;;;;;26.15;15.88;;;;;;;1.35;100.00;103571.03;5087501;28;20048;-63
2023/01/23 08:05:13;;;;;;;31.27;15.85;;;;;;;1.35;100.00;103560.66;5089934;28;20114;-63
2023/01/23 08:07:41;;;;;;;30.48;15.38;;;;;;;1.37;100.00;103566.72;5091908;28;20032;-63
2023/01/23 08:10:10;;;;;;;25.63;15.65;;;;;;;1.39;100.00;103566.75;5091979;28;20052;-62
2023/01/23 08:12:39;;;;;;;30.42;15.55;;;;;;;1.44;100.00;103575.47;5092048;28;20044;-62
2023/01/23 08:15:08;;;;;;;29.48;16.00;;;;;;;1.43;100.00;103572.03;5091862;28;20040;-63
2023/01/23 08:17:37;;;;;;;30.92;15.52;;;;;;;1.47;100.00;103580.72;5092028;28;20094;-63
2023/01/23 08:20:09;;;;;;;28.98;16.40;;;;;;;1.41;100.00;103581.47;5088508;28;20044;-63
2023/01/23 08:22:39;;;;;;;26.80;16.55;;;;;;;1.42;100.00;103584.94;5088182;28;20040;-62
2023/01/23 08:25:09;;;;;;;28.20;17.05;;;;;;;1.41;100.00;103583.22;5091415;28;20204;-62
2023/01/23 08:27:37;;;;;;;27.92;16.00;;;;;;;1.47;100.00;103581.59;5091501;28;20142;-61
2023/01/23 08:30:07;;;;;;;25.52;15.52;;;;;;;1.51;100.00;103579.91;5091945;28;20047;-62
2023/01/23 08:32:35;;;;;;;27.88;15.60;;;;;;;1.50;100.00;103583.34;5094170;28;20068;-61
2023/01/23 08:35:04;;;;;;;26.02;16.70;;;;;;;1.47;100.00;103585.91;5095301;28;20040;-62
2023/01/23 08:37:35;;;;;;;30.98;15.77;;;;;;;1.44;100.00;103583.25;5094184;28;20047;-63
2023/01/23 08:40:04;;;;;;;26.63;15.80;;;;;;;1.45;100.00;103588.47;5095116;28;20048;-62
2023/01/23 08:42:32;;;;;;;25.48;15.27;;;;;;;1.47;100.00;103583.31;5095205;28;20044;-62
2023/01/23 08:45:00;;;;;;;29.08;16.45;;;;;;;1.46;100.00;103579.84;5092873;28;20052;-62
2023/01/23 08:47:28;;;;;;;28.20;16.83;;;;;;;1.48;100.00;103585.06;5090298;28;20048;-62
2023/01/23 08:49:56;;;;;;;28.13;15.90;;;;;;;1.51;100.00;103583.41;5094785;28;20048;-62
2023/01/23 08:52:24;;;;;;;27.30;15.63;;;;;;;1.53;100.00;103580.81;5095087;28;20446;-62
2023/01/23 08:54:54;;;;;;;31.85;17.23;;;;;;;1.57;100.00;103595.59;5094938;28;20044;-62
2023/01/23 08:57:22;;;;;;;26.92;16.45;;;;;;;1.60;100.00;103595.63;5092163;28;20044;-62
2023/01/23 08:59:50;;;;;;;31.40;16.85;;;;;;;1.62;100.00;103596.56;5091394;28;20047;-62
2023/01/23 09:02:18;;;;;;;29.42;17.00;;;;;;;1.70;100.00;103612.22;5090949;28;20749;-62
2023/01/23 09:04:46;;;;;;;29.75;17.45;;;;;;;1.67;100.00;103602.66;5090349;28;20048;-62
2023/01/23 09:07:14;;;;;;;30.88;16.70;;;;;;;1.71;100.00;103602.72;5092174;28;20441;-62
2023/01/23 09:09:42;;;;;;;29.25;16.75;;;;;;;1.71;100.00;103598.41;5093532;28;20048;-62
2023/01/23 09:12:12;;;;;;;34.10;17.42;;;;;;;1.73;100.00;103601.88;5091850;28;20036;-62
2023/01/23 09:14:42;;;;;;;29.38;17.10;;;;;;;1.80;100.00;103593.38;5091629;28;20040;-62
2023/01/23 09:17:11;;;;;;;31.08;16.02;;;;;;;1.85;100.00;103589.13;5095109;28;20048;-62
2023/01/23 09:19:39;;;;;;;30.10;16.33;;;;;;;1.85;100.00;103586.53;5094595;28;20048;-62
2023/01/23 09:22:07;;;;;;;28.52;15.73;;;;;;;1.85;100.00;103576.16;5094456;28;20514;-62
2023/01/23 09:24:36;;;;;;;28.60;16.58;;;;;;;1.91;100.00;103583.16;5094565;28;20047;-62
2023/01/23 09:27:04;;;;;;;29.30;15.98;;;;;;;1.92;100.00;103581.41;5090826;28;20472;-62
2023/01/23 09:29:33;;;;;;;29.17;16.02;;;;;;;1.94;100.00;103575.41;5091279;28;20079;-62
2023/01/23 09:32:02;;;;;;;26.90;15.57;;;;;;;1.97;100.00;103582.38;5093601;28;20368;-62
2023/01/23 09:34:30;;;;;;;25.33;15.75;;;;;;;1.99;100.00;103583.25;5088563;28;20048;-62
2023/01/23 09:36:58;;;;;;;28.17;15.73;;;;;;;1.99;100.00;103584.13;5091877;28;20058;-62
2023/01/23 09:39:27;;;;;;;30.38;16.75;;;;;;;1.97;100.00;103591.00;5093732;28;20075;-62
2023/01/23 09:41:55;;;;;;;31.83;16.60;;;;;;;2.00;100.00;103598.88;5094059;28;20059;-62
2023/01/23 09:44:36;;;;;;;28.70;15.20;;;;;;;1.99;100.00;103609.19;5092836;28;20060;-62
2023/01/23 09:47:11;;;;;;;29.17;15.43;;;;;;;1.99;100.00;103615.28;5089711;28;20095;-61
2023/01/23 09:49:46;;;;;;;30.38;16.08;;;;;;;2.03;100.00;103616.19;5092500;28;20101;-62
2023/01/23 09:52:19;;;;;;;27.60;15.73;;;;;;;2.07;100.00;103612.78;5094183;28;20402;-61
2023/01/23 09:54:48;;;;;;;;;;;;;;;2.15;100.00;103623.28;5094835;28;20052;-62
2023/01/23 09:57:19;;;;;;;28.20;16.35;;;;;;;2.16;100.00;103625.03;5091998;28;19920;-62
2023/01/23 09:59:52;;;;;;;25.52;15.10;;;;;;;2.16;100.00;103623.31;5090070;28;20048;-62
2023/01/23 10:02:29;;;;;;;27.35;15.05;;;;;;;2.18;100.00;103626.81;5092503;28;20063;-62
2023/01/23 10:05:01;;;;;;;26.95;15.60;;;;;;;2.16;100.00;103628.50;5089276;28;20139;-62
2023/01/23 10:07:57;;;;;;;25.92;14.45;;;;;;;2.17;100.00;103621.59;5091225;28;20044;-62
2023/01/23 10:10:52;;;;;;;26.40;15.82;;;;;;;2.21;100.00;103626.00;5093597;28;20085;-62
2023/01/23 10:13:30;;;;;;;25.20;14.55;;;;;;;2.23;100.00;103631.22;5089696;28;20383;-62
2023/01/23 10:16:15;;;;;;;25.60;14.98;;;;;;;2.27;100.00;103622.59;5090695;28;20043;-62
2023/01/23 10:18:53;;;;;;;24.02;14.63;;;;;;;2.34;100.00;103627.03;5093304;28;20051;-62
2023/01/23 10:21:30;;;;;;;25.67;14.07;;;;;;;2.41;100.00;103618.47;5093477;28;20421;-62
2023/01/23 10:24:04;;;;;;;23.77;14.57;;;;;;;2.45;100.00;103619.38;5093371;28;20044;-62
2023/01/23 10:26:36;;;;;;;28.63;14.75;;;;;;;2.43;100.00;103621.97;5093309;28;20044;-61
2023/01/23 10:29:16;;;;;;;28.92;15.50;;;;;;;2.53;100.00;103622.94;5093115;28;20506;-62
2023/01/23 10:31:48;;;;;;;23.35;13.40;;;;;;;2.49;100.00;103626.38;5089271;28;20056;-62
2023/01/23 10:34:21;;;;;;;;;;;;;;;2.48;100.00;103628.09;5089137;28;20174;-62
2023/01/23 10:37:02;;;;;;;31.85;15.45;;;;;;;2.49;100.00;103627.22;5093547;28;19920;-62
2023/01/23 10:39:41;;;;;;;28.60;15.35;;;;;;;2.51;100.00;103625.53;5093048;28;20039;-62
2023/01/23 10:42:12;;;;;;;27.50;15.55;;;;;;;2.50;100.00;103620.31;5093083;28;20061;-62
2023/01/23 10:44:40;;;;;;;25.05;14.35;;;;;;;2.51;100.00;103614.28;5092963;28;20180;-62
2023/01/23 10:47:17;;;;;;;27.27;16.08;;;;;;;2.56;100.00;103612.59;5091721;28;20102;-62
2023/01/23 10:49:47;;;;;;;29.40;15.68;;;;;;;2.56;100.00;103611.72;5092713;28;20387;-62
2023/01/23 10:52:34;;;;;;;28.13;15.45;;;;;;;2.61;100.00;103623.91;5092326;28;20060;-62
2023/01/23 10:55:06;;;;;;;27.15;15.55;;;;;;;2.65;100.00;103617.91;5091977;28;20527;-62
2023/01/23 10:57:44;;;;;;;26.67;16.02;;;;;;;2.69;100.00;103624.88;5092695;28;20071;-62
2023/01/23 11:00:21;;;;;;;24.25;13.90;;;;;;;2.71;100.00;103614.50;5089480;28;20086;-62
2023/01/23 11:02:49;;;;;;;27.80;15.05;;;;;;;2.74;100.00;103619.75;5087887;28;20058;-62
2023/01/23 11:05:36;;;;;;;28.98;15.80;;;;;;;2.77;100.00;103619.78;5091823;28;20075;-62
2023/01/23 11:08:24;;;;;;;24.50;14.80;;;;;;;2.85;100.00;103623.34;5092556;28;20052;-62
2023/01/23 11:10:53;;;;;;;26.60;15.70;;;;;;;2.88;100.00;103615.59;5092615;28;20526;-62
2023/01/23 11:13:27;;;;;;;28.70;15.45;;;;;;;3.02;100.00;103617.47;5092567;28;20043;-62
2023/01/23 11:15:56;;;;;;;26.10;14.18;;;;;;;3.04;100.00;103623.53;5092069;28;20077;-62
2023/01/23 11:18:32;;;;;;;27.65;15.35;;;;;;;3.07;100.00;103623.59;5090981;28;20117;-62
2023/01/23 11:21:02;;;;;;;26.67;15.38;;;;;;;3.14;100.00;103624.53;5092361;28;20137;-62
2023/01/23 11:23:31;;;;;;;26.90;16.50;;;;;;;3.20;100.00;103628.06;5092350;28;20551;-62
2023/01/23 11:25:59;;;;;;;29.25;15.98;;;;;;;3.27;100.00;103615.13;5092079;28;20046;-62
2023/01/23 11:28:29;;;;;;;28.30;16.52;;;;;;;3.31;100.00;103614.28;5089717;28;20056;-62
2023/01/23 11:31:05;;;;;;;29.50;15.85;;;;;;;3.29;100.00;103610.81;5088661;28;20475;-62